Terminal Aerodrome Forecast
Issued by NWS

Home | Current Version | Previous Version | Text Only | Print | Product List | Glossary On
Versions: 1 2 3 4 5 6 7 8 9 10 11 12 13 14 15 16 17 18 19 20 21 22 23 24 25 26 27 28 29 30 31 32 33 34 35 36 37 38 39 40 41 42 43 44 45 46 47 48 49 50
000
FTUS43 KGRB 252331
TAFATW
TAF
KATW 252331Z 2600/2624 04010G15KT P6SM FEW040
     FM260300 09004KT P6SM FEW080
     FM260900 00000KT 5SM BR SCT090
     FM261000 00000KT 1 1/2SM BR FEW050 BKN090
     FM261300 VRB03KT P6SM SCT050 BKN070
     FM261600 14006KT P6SM BKN050
     FM262000 17007KT P6SM VCSH BKN040=

USA.gov is the U.S. government's official web portal to all federal, state and local government web resources and services.